createdAt,value
2022-11-05T00:00:07.170Z,76.64
2022-11-05T00:02:52.693Z,76.45
2022-11-05T00:05:38.126Z,75.74
2022-11-05T00:08:23.405Z,75.34
2022-11-05T00:10:49.987Z,75.24
2022-11-05T00:13:35.299Z,74.72
2022-11-05T00:16:20.617Z,74.87
2022-11-05T00:19:06.514Z,75.17
2022-11-05T00:21:52.209Z,75.90
2022-11-05T00:24:37.555Z,75.54
2022-11-05T00:27:04.498Z,75.42
2022-11-05T00:29:31.017Z,75.29
2022-11-05T00:31:57.720Z,75.43
2022-11-05T00:34:24.278Z,75.55
2022-11-05T00:36:50.777Z,75.37
2022-11-05T00:39:17.414Z,75.69
2022-11-05T00:41:43.949Z,75.76
2022-11-05T00:44:29.015Z,75.82
2022-11-05T00:47:15.592Z,75.57
2022-11-05T00:49:42.193Z,75.43
2022-11-05T00:52:27.246Z,75.20
2022-11-05T00:54:53.826Z,75.37
2022-11-05T00:57:20.321Z,75.36
2022-11-05T00:59:46.883Z,75.07
2022-11-05T01:02:13.509Z,75.23
2022-11-05T01:04:40.168Z,75.29
2022-11-05T01:07:06.687Z,75.05
2022-11-05T01:09:33.298Z,75.05
2022-11-05T01:11:59.832Z,74.88
2022-11-05T01:14:28.150Z,74.94
2022-11-05T01:16:54.760Z,74.94
2022-11-05T01:19:21.559Z,74.88
2022-11-05T01:21:48.040Z,74.78
2022-11-05T01:24:16.928Z,74.96
2022-11-05T01:26:43.550Z,74.70
2022-11-05T01:29:11.523Z,74.60
2022-11-05T01:31:38.139Z,74.89
2022-11-05T01:34:04.730Z,74.70
2022-11-05T01:36:31.276Z,74.56
2022-11-05T01:38:57.861Z,74.59
2022-11-05T01:41:24.870Z,74.71
2022-11-05T01:43:52.813Z,74.54
2022-11-05T01:46:20.198Z,74.56
2022-11-05T01:48:46.760Z,74.98
2022-11-05T01:51:14.005Z,74.93
2022-11-05T01:53:44.902Z,75.36
2022-11-05T01:56:22.810Z,75.29
2022-11-05T01:59:08.708Z,74.99
2022-11-05T02:01:35.521Z,74.56
2022-11-05T02:04:03.467Z,74.63
2022-11-05T02:06:30.429Z,74.58
2022-11-05T02:08:58.726Z,75.02
2022-11-05T02:11:25.519Z,74.75
2022-11-05T02:13:52.092Z,74.90
2022-11-05T02:16:18.656Z,74.74
2022-11-05T02:18:52.032Z,74.68
2022-11-05T02:21:18.545Z,74.72
2022-11-05T02:23:48.426Z,74.53
2022-11-05T02:26:33.358Z,74.64
2022-11-05T02:29:18.454Z,74.66
2022-11-05T02:31:50.897Z,74.35
2022-11-05T02:34:26.173Z,74.19
2022-11-05T02:37:13.001Z,74.08
2022-11-05T02:40:12.269Z,74.28
2022-11-05T02:42:58.768Z,74.42
2022-11-05T02:45:27.589Z,74.85
2022-11-05T02:47:59.164Z,74.53
2022-11-05T02:50:37.477Z,74.16
2022-11-05T02:53:11.491Z,74.82
2022-11-05T02:55:59.565Z,74.82
2022-11-05T02:58:29.230Z,74.40
2022-11-05T03:00:55.920Z,74.47
2022-11-05T03:03:25.803Z,74.92
2022-11-05T03:06:01.667Z,74.69
2022-11-05T03:08:31.325Z,75.04
2022-11-05T03:10:59.155Z,75.26
2022-11-05T03:13:29.148Z,74.93
2022-11-05T03:15:56.850Z,74.84
2022-11-05T03:18:38.617Z,74.98
2022-11-05T03:21:17.358Z,74.93
2022-11-05T03:23:46.796Z,74.93
2022-11-05T03:26:20.726Z,74.96
2022-11-05T03:28:48.257Z,75.12
2022-11-05T03:31:15.066Z,75.66
2022-11-05T03:33:41.702Z,75.99
2022-11-05T03:36:11.255Z,75.80
2022-11-05T03:38:38.840Z,76.31
2022-11-05T03:41:06.503Z,76.05
2022-11-05T03:43:34.845Z,76.20
2022-11-05T03:46:06.627Z,76.37
2022-11-05T03:48:33.323Z,76.33
2022-11-05T03:51:05.960Z,76.88
2022-11-05T03:53:33.481Z,77.23
2022-11-05T03:56:01.457Z,76.88
2022-11-05T03:58:28.018Z,77.09
2022-11-05T04:00:54.578Z,77.11
2022-11-05T04:03:21.119Z,77.27
2022-11-05T04:06:07.629Z,77.17
2022-11-05T04:08:53.233Z,77.20
2022-11-05T04:11:38.521Z,77.55
2022-11-05T04:14:05.082Z,78.31
2022-11-05T04:16:50.444Z,78.00
2022-11-05T04:19:37.035Z,78.21
2022-11-05T04:22:22.433Z,78.68
2022-11-05T04:24:48.962Z,79.16
2022-11-05T04:27:15.524Z,79.94
2022-11-05T04:30:00.850Z,79.94
2022-11-05T04:32:27.346Z,80.13
2022-11-05T04:34:53.953Z,80.04
2022-11-05T04:37:20.512Z,80.58
2022-11-05T04:39:47.139Z,80.39
2022-11-05T04:42:13.725Z,80.37
2022-11-05T04:44:40.296Z,80.61
2022-11-05T04:47:06.904Z,80.59
2022-11-05T04:49:33.506Z,80.68
2022-11-05T04:52:00.065Z,80.66
2022-11-05T04:54:27.011Z,79.98
2022-11-05T04:56:53.649Z,80.43
2022-11-05T04:59:20.295Z,80.15
2022-11-05T05:01:46.908Z,79.77
2022-11-05T05:04:14.642Z,80.21
2022-11-05T05:06:41.193Z,79.81
2022-11-05T05:09:07.728Z,80.07
2022-11-05T05:11:34.326Z,79.70
2022-11-05T05:14:00.845Z,79.59
2022-11-05T05:16:27.668Z,79.98
2022-11-05T05:18:54.533Z,79.95
2022-11-05T05:21:40.418Z,79.82
2022-11-05T05:24:09.038Z,79.64
2022-11-05T05:26:36.542Z,79.44
2022-11-05T05:29:03.779Z,79.76
2022-11-05T05:31:30.440Z,79.66
2022-11-05T05:33:57.030Z,79.64
2022-11-05T05:36:23.700Z,79.46
2022-11-05T05:38:50.560Z,79.30
2022-11-05T05:41:17.320Z,79.48
2022-11-05T05:43:43.930Z,79.27
2022-11-05T05:46:11.570Z,79.34
2022-11-05T05:48:38.534Z,79.38
2022-11-05T05:51:06.046Z,79.27
2022-11-05T05:53:33.004Z,79.08
2022-11-05T05:55:59.513Z,79.04
2022-11-05T05:58:29.608Z,78.93
2022-11-05T06:00:56.163Z,79.25
2022-11-05T06:03:22.730Z,80.42
2022-11-05T06:05:49.618Z,80.01
2022-11-05T06:08:16.218Z,80.19
2022-11-05T06:10:42.860Z,79.91
2022-11-05T06:13:09.775Z,79.75
2022-11-05T06:15:36.558Z,79.98
2022-11-05T06:18:03.209Z,80.37
2022-11-05T06:20:29.734Z,80.23
2022-11-05T06:22:56.598Z,79.98
2022-11-05T06:25:23.442Z,80.08
2022-11-05T06:27:50.023Z,79.90
2022-11-05T06:30:17.676Z,79.82
2022-11-05T06:32:44.444Z,80.36
2022-11-05T06:35:10.975Z,80.36
2022-11-05T06:37:37.484Z,79.81
2022-11-05T06:40:04.225Z,79.61
2022-11-05T06:42:30.761Z,79.61
2022-11-05T06:44:57.358Z,79.33
2022-11-05T06:47:23.938Z,79.13
2022-11-05T06:49:50.539Z,79.51
2022-11-05T06:52:17.058Z,79.22
2022-11-05T06:54:43.946Z,79.17
2022-11-05T06:57:10.960Z,79.48
2022-11-05T06:59:38.382Z,79.10
2022-11-05T07:02:05.582Z,78.82
2022-11-05T07:04:32.295Z,78.97
2022-11-05T07:06:59.876Z,78.87
2022-11-05T07:09:26.612Z,78.93
2022-11-05T07:11:53.113Z,78.91
2022-11-05T07:14:19.726Z,79.00
2022-11-05T07:16:46.286Z,79.17
2022-11-05T07:19:12.853Z,79.00
2022-11-05T07:21:39.631Z,79.00
2022-11-05T07:24:06.570Z,79.22
2022-11-05T07:26:34.693Z,79.30
2022-11-05T07:29:01.449Z,79.33
2022-11-05T07:31:28.254Z,79.50
2022-11-05T07:33:54.880Z,79.62
2022-11-05T07:36:21.493Z,79.78
2022-11-05T07:38:48.094Z,79.56
2022-11-05T07:41:14.818Z,79.39
2022-11-05T07:43:41.415Z,79.31
2022-11-05T07:46:13.535Z,79.01
2022-11-05T07:48:40.437Z,79.06
2022-11-05T07:51:07.068Z,78.88
2022-11-05T07:53:33.652Z,78.79
2022-11-05T07:56:04.853Z,79.20
2022-11-05T07:58:38.310Z,79.36
2022-11-05T08:01:05.123Z,79.96
2022-11-05T08:03:31.931Z,80.73
2022-11-05T08:05:58.873Z,80.44
2022-11-05T08:08:25.590Z,80.93
2022-11-05T08:10:52.349Z,80.91
2022-11-05T08:13:19.075Z,80.47
2022-11-05T08:15:45.760Z,80.30
2022-11-05T08:18:21.477Z,80.24
2022-11-05T08:20:48.157Z,80.25
2022-11-05T08:23:15.350Z,80.43
2022-11-05T08:25:42.228Z,80.76
2022-11-05T08:28:10.523Z,80.58
2022-11-05T08:30:37.216Z,80.21
2022-11-05T08:33:09.278Z,80.04
2022-11-05T08:35:36.454Z,80.39
2022-11-05T08:38:04.102Z,80.34
2022-11-05T08:40:35.243Z,80.82
2022-11-05T08:43:07.543Z,80.38
2022-11-05T08:45:34.961Z,80.49
2022-11-05T08:48:03.095Z,80.69
2022-11-05T08:50:29.984Z,80.16
2022-11-05T08:52:57.154Z,80.40
2022-11-05T08:55:27.412Z,80.37
2022-11-05T08:57:58.281Z,80.40
2022-11-05T09:00:25.613Z,80.68
2022-11-05T09:02:52.255Z,80.77
2022-11-05T09:05:25.474Z,80.67
2022-11-05T09:07:56.460Z,80.66
2022-11-05T09:10:26.840Z,80.88
2022-11-05T09:12:53.467Z,80.47
2022-11-05T09:15:20.324Z,80.88
2022-11-05T09:17:47.051Z,81.15
2022-11-05T09:20:13.983Z,80.82
2022-11-05T09:22:43.462Z,80.67
2022-11-05T09:25:10.364Z,81.21
2022-11-05T09:27:36.946Z,81.29
2022-11-05T09:30:04.106Z,81.02
2022-11-05T09:32:31.207Z,81.23
2022-11-05T09:35:00.463Z,80.82
2022-11-05T09:37:28.113Z,80.87
2022-11-05T09:39:54.776Z,80.82
2022-11-05T09:42:21.746Z,80.97
2022-11-05T09:44:49.638Z,80.29
2022-11-05T09:47:20.851Z,80.00
2022-11-05T09:49:50.330Z,79.70
2022-11-05T09:52:21.845Z,79.33
2022-11-05T09:54:50.318Z,79.16
2022-11-05T09:57:17.933Z,79.60
2022-11-05T09:59:45.358Z,79.46
2022-11-05T10:02:19.870Z,79.46
2022-11-05T10:04:47.098Z,79.65
2022-11-05T10:07:14.864Z,79.66
2022-11-05T10:09:45.356Z,79.65
2022-11-05T10:12:12.884Z,79.99
2022-11-05T10:14:49.068Z,79.68
2022-11-05T10:17:17.182Z,78.99
2022-11-05T10:19:44.540Z,78.93
2022-11-05T10:22:16.515Z,79.02
2022-11-05T10:24:47.586Z,79.30
2022-11-05T10:27:23.601Z,79.31
2022-11-05T10:29:50.268Z,78.70
2022-11-05T10:32:26.473Z,78.68
2022-11-05T10:34:53.004Z,78.16
2022-11-05T10:37:19.524Z,78.53
2022-11-05T10:39:46.151Z,78.49
2022-11-05T10:42:15.951Z,78.46
2022-11-05T10:44:47.763Z,77.94
2022-11-05T10:47:33.047Z,78.38
2022-11-05T10:50:00.587Z,77.63
2022-11-05T10:52:34.732Z,78.11
2022-11-05T10:55:02.301Z,77.97
2022-11-05T10:57:28.984Z,78.76
2022-11-05T11:00:19.123Z,79.14
2022-11-05T11:02:48.674Z,79.35
2022-11-05T11:05:35.614Z,79.35
2022-11-05T11:08:04.300Z,79.03
2022-11-05T11:10:31.860Z,79.35
2022-11-05T11:12:58.451Z,79.20
2022-11-05T11:15:27.486Z,79.63
2022-11-05T11:17:54.821Z,79.72
2022-11-05T11:20:23.625Z,79.61
2022-11-05T11:23:11.478Z,79.90
2022-11-05T11:25:50.643Z,79.61
2022-11-05T11:28:21.636Z,79.70
2022-11-05T11:30:49.059Z,79.44
2022-11-05T11:33:15.667Z,78.62
2022-11-05T11:35:42.169Z,78.55
2022-11-05T11:38:11.601Z,78.00
2022-11-05T11:40:38.196Z,77.96
2022-11-05T11:43:06.467Z,78.16
2022-11-05T11:45:34.277Z,77.52
2022-11-05T11:48:01.738Z,77.70
2022-11-05T11:50:31.120Z,78.16
2022-11-05T11:53:15.740Z,77.53
2022-11-05T11:55:47.871Z,77.38
2022-11-05T11:58:14.390Z,76.24
2022-11-05T12:00:43.913Z,76.69
2022-11-05T12:03:16.829Z,76.61
2022-11-05T12:05:55.610Z,76.24
2022-11-05T12:08:44.974Z,76.27
2022-11-05T12:11:12.250Z,76.30
2022-11-05T12:13:41.727Z,76.39
2022-11-05T12:16:26.918Z,76.04
2022-11-05T12:18:57.471Z,76.03
2022-11-05T12:21:53.323Z,75.90
2022-11-05T12:24:39.114Z,75.83
2022-11-05T12:27:11.669Z,75.56
2022-11-05T12:29:51.022Z,74.79
2022-11-05T12:32:36.397Z,73.11
2022-11-05T12:35:03.055Z,73.92
2022-11-05T12:37:46.012Z,74.13
2022-11-05T12:40:31.462Z,73.64
2022-11-05T12:42:58.031Z,73.92
2022-11-05T12:45:34.097Z,73.88
2022-11-05T12:48:09.160Z,73.83
2022-11-05T12:50:38.716Z,73.80
2022-11-05T12:53:05.383Z,72.78
2022-11-05T12:55:34.224Z,72.47
2022-11-05T12:58:08.355Z,72.57
2022-11-05T13:00:35.067Z,72.44
2022-11-05T13:03:01.731Z,72.13
2022-11-05T13:05:30.987Z,72.04
2022-11-05T13:08:17.119Z,72.47
2022-11-05T13:10:49.331Z,72.37
2022-11-05T13:13:23.516Z,71.79
2022-11-05T13:16:10.333Z,72.61
2022-11-05T13:18:45.478Z,71.54
2022-11-05T13:21:12.028Z,71.90
2022-11-05T13:23:44.003Z,72.17
2022-11-05T13:26:14.480Z,71.38
2022-11-05T13:28:53.089Z,71.65
2022-11-05T13:31:20.807Z,71.74
2022-11-05T13:33:48.167Z,72.39
2022-11-05T13:36:36.511Z,72.78
2022-11-05T13:39:23.372Z,72.39
2022-11-05T13:42:08.758Z,71.18
2022-11-05T13:44:57.672Z,71.73
2022-11-05T13:47:24.175Z,71.86
2022-11-05T13:50:13.050Z,71.68
2022-11-05T13:52:44.689Z,71.19
2022-11-05T13:55:15.672Z,72.42
2022-11-05T13:57:51.604Z,72.70
2022-11-05T14:00:19.501Z,71.86
2022-11-05T14:02:50.777Z,71.91
2022-11-05T14:05:22.257Z,71.15
2022-11-05T14:07:49.409Z,71.00
2022-11-05T14:10:25.202Z,70.52
2022-11-05T14:12:52.462Z,71.12
2022-11-05T14:15:22.836Z,71.21
2022-11-05T14:17:55.649Z,71.61
2022-11-05T14:20:31.486Z,71.17
2022-11-05T14:23:16.697Z,70.62
2022-11-05T14:25:43.858Z,71.25
2022-11-05T14:28:28.962Z,71.63
2022-11-05T14:30:55.888Z,70.89
2022-11-05T14:33:25.482Z,70.99
2022-11-05T14:35:52.385Z,71.38
2022-11-05T14:38:20.561Z,71.96
2022-11-05T14:40:47.550Z,71.51
2022-11-05T14:43:14.400Z,71.55
2022-11-05T14:46:01.418Z,71.19
2022-11-05T14:48:32.566Z,71.81
2022-11-05T14:50:59.089Z,72.17
2022-11-05T14:53:25.691Z,71.73
2022-11-05T14:56:01.306Z,72.03
2022-11-05T14:58:29.158Z,71.63
2022-11-05T15:00:56.182Z,72.41
2022-11-05T15:03:46.021Z,71.83
2022-11-05T15:06:24.402Z,72.45
2022-11-05T15:08:50.944Z,72.49
2022-11-05T15:11:22.002Z,72.92
2022-11-05T15:13:58.109Z,72.56
2022-11-05T15:16:26.010Z,73.00
2022-11-05T15:18:53.125Z,72.39
2022-11-05T15:21:20.154Z,72.71
2022-11-05T15:23:46.926Z,72.64
2022-11-05T15:26:18.732Z,72.00
2022-11-05T15:28:46.693Z,72.62
2022-11-05T15:31:13.205Z,72.23
2022-11-05T15:33:43.221Z,73.00
2022-11-05T15:36:09.729Z,72.83
2022-11-05T15:38:36.655Z,72.70
2022-11-05T15:41:12.571Z,72.71
2022-11-05T15:43:47.663Z,72.64
2022-11-05T15:46:19.809Z,72.19
2022-11-05T15:48:53.415Z,72.15
2022-11-05T15:51:20.767Z,72.07
2022-11-05T15:54:15.719Z,72.32
2022-11-05T15:56:33.731Z,72.34
2022-11-05T15:59:00.187Z,72.40
2022-11-05T16:01:31.383Z,72.76
2022-11-05T16:03:59.215Z,72.54
2022-11-05T16:06:28.099Z,72.72
2022-11-05T16:08:54.711Z,72.78
2022-11-05T16:11:22.211Z,72.77
2022-11-05T16:13:48.804Z,72.69
2022-11-05T16:16:15.348Z,72.34
2022-11-05T16:18:42.216Z,72.60
2022-11-05T16:21:17.610Z,73.45
2022-11-05T16:23:50.214Z,72.96
2022-11-05T16:26:55.927Z,72.65
2022-11-05T16:29:33.739Z,72.82
2022-11-05T16:32:01.237Z,73.45
2022-11-05T16:34:29.176Z,73.09
2022-11-05T16:36:56.234Z,73.48
2022-11-05T16:39:22.789Z,73.64
2022-11-05T16:41:49.518Z,73.30
2022-11-05T16:44:16.065Z,73.12
2022-11-05T16:46:43.841Z,73.27
2022-11-05T16:49:13.691Z,73.12
2022-11-05T16:51:40.462Z,72.96
2022-11-05T16:54:07.309Z,72.57
2022-11-05T16:56:33.895Z,72.16
2022-11-05T16:59:00.454Z,72.07
2022-11-05T17:01:28.053Z,72.05
2022-11-05T17:03:54.723Z,72.03
2022-11-05T17:06:21.465Z,71.59
2022-11-05T17:08:48.280Z,71.47
2022-11-05T17:11:15.632Z,71.82
2022-11-05T17:13:42.323Z,71.71
2022-11-05T17:16:13.173Z,71.95
2022-11-05T17:18:40.294Z,72.52
2022-11-05T17:21:07.149Z,72.63
2022-11-05T17:23:34.469Z,73.26
2022-11-05T17:26:04.606Z,74.04
2022-11-05T17:28:31.294Z,73.13
2022-11-05T17:31:01.394Z,73.29
2022-11-05T17:33:28.056Z,73.79
2022-11-05T17:35:54.629Z,73.91
2022-11-05T17:38:21.442Z,74.20
2022-11-05T17:40:48.134Z,74.59
2022-11-05T17:43:15.808Z,74.65
2022-11-05T17:45:47.143Z,74.85
2022-11-05T17:48:14.588Z,74.97
2022-11-05T17:50:44.794Z,74.90
2022-11-05T17:53:11.974Z,75.35
2022-11-05T17:55:42.595Z,75.03
2022-11-05T17:58:09.191Z,75.29
2022-11-05T18:00:35.989Z,75.60
2022-11-05T18:03:02.583Z,75.68
2022-11-05T18:05:30.973Z,75.43
2022-11-05T18:07:58.245Z,75.25
2022-11-05T18:10:24.972Z,75.39
2022-11-05T18:12:51.636Z,75.65
2022-11-05T18:15:18.361Z,75.55
2022-11-05T18:17:45.845Z,75.77
2022-11-05T18:20:18.430Z,75.51
2022-11-05T18:22:45.846Z,75.67
2022-11-05T18:25:13.104Z,76.32
2022-11-05T18:27:40.617Z,76.01
2022-11-05T18:30:07.644Z,75.19
2022-11-05T18:32:34.595Z,75.42
2022-11-05T18:35:01.276Z,75.47
2022-11-05T18:37:28.034Z,75.86
2022-11-05T18:39:54.836Z,75.97
2022-11-05T18:42:21.408Z,75.86
2022-11-05T18:44:48.156Z,76.57
2022-11-05T18:47:14.741Z,76.68
2022-11-05T18:49:41.309Z,76.67
2022-11-05T18:52:07.909Z,76.64
2022-11-05T18:54:34.609Z,76.74
2022-11-05T18:57:01.205Z,76.58
2022-11-05T18:59:37.675Z,76.93
2022-11-05T19:02:05.498Z,76.20
2022-11-05T19:04:32.225Z,75.94
2022-11-05T19:07:04.164Z,76.01
2022-11-05T19:09:32.526Z,76.17
2022-11-05T19:11:59.136Z,76.57
2022-11-05T19:14:25.707Z,76.49
2022-11-05T19:16:52.318Z,76.32
2022-11-05T19:19:18.928Z,76.57
2022-11-05T19:21:45.431Z,76.21
2022-11-05T19:24:16.675Z,76.25
2022-11-05T19:26:46.301Z,76.36
2022-11-05T19:29:12.839Z,76.47
2022-11-05T19:31:39.413Z,76.48
2022-11-05T19:34:06.083Z,76.56
2022-11-05T19:36:33.142Z,76.97
2022-11-05T19:39:09.774Z,77.14
2022-11-05T19:41:36.531Z,77.20
2022-11-05T19:44:03.542Z,77.04
2022-11-05T19:46:30.477Z,77.12
2022-11-05T19:48:57.127Z,77.20
2022-11-05T19:51:25.143Z,77.35
2022-11-05T19:53:52.929Z,77.41
2022-11-05T19:56:20.581Z,77.32
2022-11-05T19:58:47.234Z,76.90
2022-11-05T20:01:14.103Z,76.22
2022-11-05T20:03:40.943Z,76.47
2022-11-05T20:06:08.999Z,76.75
2022-11-05T20:08:47.768Z,76.83
2022-11-05T20:11:22.108Z,76.12
2022-11-05T20:13:48.691Z,75.61
2022-11-05T20:16:22.870Z,75.45
2022-11-05T20:18:49.550Z,75.72
2022-11-05T20:21:16.282Z,76.60
2022-11-05T20:23:43.203Z,77.07
2022-11-05T20:26:10.500Z,77.41
2022-11-05T20:28:37.628Z,77.92
2022-11-05T20:31:11.242Z,77.75
2022-11-05T20:33:38.262Z,77.81
2022-11-05T20:36:05.992Z,77.86
2022-11-05T20:38:32.721Z,78.03
2022-11-05T20:40:59.317Z,78.19
2022-11-05T20:43:30.195Z,78.18
2022-11-05T20:45:57.941Z,77.61
2022-11-05T20:48:24.849Z,77.38
2022-11-05T20:50:51.752Z,77.64
2022-11-05T20:53:18.916Z,77.94
2022-11-05T20:55:46.392Z,78.03
2022-11-05T20:58:15.158Z,78.22
2022-11-05T21:00:46.822Z,78.33
2022-11-05T21:03:13.341Z,78.35
2022-11-05T21:05:39.862Z,78.51
2022-11-05T21:08:06.452Z,78.56
2022-11-05T21:10:33.074Z,78.32
2022-11-05T21:12:59.647Z,78.15
2022-11-05T21:15:26.269Z,77.87
2022-11-05T21:17:52.863Z,78.05
2022-11-05T21:20:19.581Z,77.85
2022-11-05T21:22:46.193Z,77.65
2022-11-05T21:25:12.967Z,77.74
2022-11-05T21:27:43.556Z,77.73
2022-11-05T21:30:10.912Z,77.76
2022-11-05T21:32:39.364Z,78.13
2022-11-05T21:35:06.243Z,78.16
2022-11-05T21:37:33.168Z,77.90
2022-11-05T21:40:03.340Z,77.59
2022-11-05T21:42:30.109Z,77.42
2022-11-05T21:45:00.364Z,77.75
2022-11-05T21:47:28.120Z,77.76
2022-11-05T21:49:54.650Z,77.61
2022-11-05T21:52:40.058Z,77.34
2022-11-05T21:55:26.347Z,77.42
2022-11-05T21:58:12.073Z,77.61
2022-11-05T22:00:38.946Z,77.72
2022-11-05T22:03:05.558Z,77.83
2022-11-05T22:05:32.278Z,77.64
2022-11-05T22:07:58.919Z,77.72
2022-11-05T22:10:25.518Z,77.74
2022-11-05T22:12:52.087Z,78.53
2022-11-05T22:15:18.708Z,78.24
2022-11-05T22:17:47.180Z,78.22
2022-11-05T22:20:14.120Z,78.08
2022-11-05T22:22:40.710Z,78.20
2022-11-05T22:25:08.463Z,77.95
2022-11-05T22:27:35.093Z,77.98
2022-11-05T22:30:01.769Z,77.52
2022-11-05T22:32:28.343Z,77.24
2022-11-05T22:34:54.956Z,77.16
2022-11-05T22:37:22.770Z,77.09
2022-11-05T22:39:52.540Z,77.38
2022-11-05T22:42:19.341Z,77.29
2022-11-05T22:44:46.049Z,77.73
2022-11-05T22:47:14.149Z,77.80
2022-11-05T22:49:40.705Z,78.08
2022-11-05T22:52:10.675Z,77.95
2022-11-05T22:54:39.452Z,78.24
2022-11-05T22:57:06.361Z,78.10
2022-11-05T22:59:33.010Z,78.49
2022-11-05T23:02:02.781Z,77.83
2022-11-05T23:04:32.000Z,77.90
2022-11-05T23:07:17.456Z,78.07
2022-11-05T23:10:02.788Z,78.29
2022-11-05T23:12:33.867Z,78.24
2022-11-05T23:15:03.629Z,78.26
2022-11-05T23:17:49.296Z,78.38
2022-11-05T23:20:35.763Z,78.04
2022-11-05T23:23:21.152Z,78.34
2022-11-05T23:25:48.043Z,78.21
2022-11-05T23:28:15.088Z,78.09
2022-11-05T23:31:02.645Z,78.23
2022-11-05T23:33:29.400Z,77.91
2022-11-05T23:36:15.246Z,78.11
2022-11-05T23:38:41.958Z,77.44
2022-11-05T23:41:27.283Z,76.79
2022-11-05T23:44:12.527Z,77.31
2022-11-05T23:46:57.777Z,77.26
2022-11-05T23:49:24.355Z,77.33
2022-11-05T23:51:50.964Z,77.86
2022-11-05T23:54:17.469Z,77.83
2022-11-05T23:56:44.076Z,77.90
2022-11-05T23:59:10.654Z,78.40
